Startpagina
METAR-TAF:

METAR-TAF

Vliegvelden :

Luchthaven Dakar

Dakar, Senegal

breedte: 14-44N, lengte: 017-30W, hoogte: 27 m

Actueel weer

Dit bericht is 1 uur en het 5 minuten geleden gemaakt, om 21:00 UTC
Wind 10 kt uit het zuidwesten
Temperatuur 26°C
Vochtigheid 79%
Druk 1010 hPa
Zicht: 8000 m
Verspreide wolken op 1500 ft

METAR: GOOY 162100Z 22010KT 8000 SCT015 26/22 Q1010

Tijdstip: 22:05 (22:05 UTC)

Verwachting

Dit bericht is 4 uur en het 35 minuten geleden gemaakt, om 17:30 UTC
Verwachting geldig van 16 om 18 UTC tot 17 om 24 UTC
Wind 12 kt uit het westzuidwesten
Zicht: 8000 m
Verspreide wolken op 1300 ft

TAF: GOOY 161730Z 1618/1724 24012KT 8000 SCT013

Waarnemingen en weersverwachtingen van meer dan 4000 vliegvelden (METAR en TAF).

De beschikbare stations zijn de gele en rode punten op de kaart.

Ga met uw muis naar het station om de naam te zien.

Klik dan om waarnemingen en weersverwachtingen te zien.

kaart wijzigen: klik op de groene knoppen met een zwart kruis om in te zoomen, op de groene knop met een streepje om uit te zoomen of op de groene pijlen voor aangrenzende kaarten.


METAR-TAF: